createdAt,value
2022-10-15T00:00:06.109Z,14.64
2022-10-15T00:01:05.989Z,14.65
2022-10-15T00:02:06.081Z,14.65
2022-10-15T00:03:06.029Z,14.64
2022-10-15T00:04:05.922Z,14.65
2022-10-15T00:05:05.919Z,14.65
2022-10-15T00:06:05.912Z,14.65
2022-10-15T00:07:05.897Z,14.64
2022-10-15T00:08:05.911Z,14.62
2022-10-15T00:09:05.889Z,14.64
2022-10-15T00:10:05.857Z,14.64
2022-10-15T00:11:05.888Z,14.65
2022-10-15T00:12:05.859Z,14.65
2022-10-15T00:13:05.872Z,14.65
2022-10-15T00:14:05.814Z,14.65
2022-10-15T00:15:06.106Z,14.65
2022-10-15T00:16:05.800Z,14.65
2022-10-15T00:17:05.817Z,14.65
2022-10-15T00:18:05.759Z,14.65
2022-10-15T00:19:05.791Z,14.64
2022-10-15T00:20:05.739Z,14.65
2022-10-15T00:21:05.781Z,14.64
2022-10-15T00:22:05.724Z,14.64
2022-10-15T00:23:05.932Z,14.64
2022-10-15T00:24:05.741Z,14.62
2022-10-15T00:25:05.760Z,14.64
2022-10-15T00:26:05.704Z,14.65
2022-10-15T00:27:05.671Z,14.64
2022-10-15T00:28:05.675Z,14.64
2022-10-15T00:29:05.856Z,14.64
2022-10-15T00:30:05.690Z,14.65
2022-10-15T00:31:05.614Z,14.64
2022-10-15T00:32:05.633Z,14.65
2022-10-15T00:33:05.592Z,14.65
2022-10-15T00:34:05.583Z,14.64
2022-10-15T00:35:05.573Z,14.65
2022-10-15T00:36:05.547Z,14.67
2022-10-15T00:37:05.572Z,14.67
2022-10-15T00:38:05.575Z,14.65
2022-10-15T00:39:05.544Z,14.64
2022-10-15T00:40:05.516Z,14.65
2022-10-15T00:41:05.495Z,14.65
2022-10-15T00:42:05.478Z,14.65
2022-10-15T00:43:05.504Z,14.67
2022-10-15T00:44:05.473Z,14.65
2022-10-15T00:45:05.466Z,14.65
2022-10-15T00:46:05.456Z,14.67
2022-10-15T00:47:05.429Z,14.67
2022-10-15T00:48:05.417Z,14.67
2022-10-15T00:49:05.444Z,14.67
2022-10-15T00:50:05.386Z,14.67
2022-10-15T00:51:05.384Z,14.67
2022-10-15T00:52:05.368Z,14.67
2022-10-15T00:53:05.357Z,14.65
2022-10-15T00:54:05.357Z,14.65
2022-10-15T00:55:05.379Z,14.65
2022-10-15T00:56:05.317Z,14.65
2022-10-15T00:57:05.308Z,14.65
2022-10-15T00:58:05.346Z,14.64
2022-10-15T00:59:05.304Z,14.64
2022-10-15T01:00:05.279Z,14.64
2022-10-15T01:01:05.302Z,14.62
2022-10-15T01:02:05.258Z,14.64
2022-10-15T01:03:05.251Z,14.65
2022-10-15T01:04:05.235Z,14.65
2022-10-15T01:05:05.219Z,14.64
2022-10-15T01:06:05.237Z,14.64
2022-10-15T01:07:05.238Z,14.65
2022-10-15T01:08:05.181Z,14.64
2022-10-15T01:09:05.179Z,14.65
2022-10-15T01:10:05.171Z,14.65
2022-10-15T01:11:05.161Z,14.65
2022-10-15T01:12:05.180Z,14.65
2022-10-15T01:13:05.131Z,14.64
2022-10-15T01:14:05.126Z,14.64
2022-10-15T01:15:05.133Z,14.65
2022-10-15T01:16:05.182Z,14.65
2022-10-15T01:17:05.092Z,14.65
2022-10-15T01:18:05.103Z,14.64
2022-10-15T01:19:05.062Z,14.65
2022-10-15T01:20:05.053Z,14.64
2022-10-15T01:21:05.041Z,14.64
2022-10-15T01:22:05.028Z,14.64
2022-10-15T01:23:05.023Z,14.64
2022-10-15T01:24:05.022Z,14.64
2022-10-15T01:25:05.029Z,14.64
2022-10-15T01:26:04.975Z,14.64
2022-10-15T01:27:04.965Z,14.64
2022-10-15T01:28:04.953Z,14.62
2022-10-15T01:29:04.975Z,14.64
2022-10-15T01:30:05.022Z,14.62
2022-10-15T01:31:04.937Z,14.62
2022-10-15T01:32:04.903Z,14.62
2022-10-15T01:33:04.894Z,14.62
2022-10-15T01:34:04.935Z,14.61
2022-10-15T01:35:04.905Z,14.61
2022-10-15T01:36:06.447Z,14.61
2022-10-15T01:37:04.846Z,14.61
2022-10-15T01:38:04.834Z,14.62
2022-10-15T01:39:04.824Z,14.62
2022-10-15T01:40:04.815Z,14.64
2022-10-15T01:41:04.817Z,14.64
2022-10-15T01:42:04.804Z,14.64
2022-10-15T01:43:04.778Z,14.62
2022-10-15T01:44:04.766Z,14.64
2022-10-15T01:45:04.755Z,14.64
2022-10-15T01:46:04.778Z,14.64
2022-10-15T01:47:04.742Z,14.65
2022-10-15T01:48:04.719Z,14.62
2022-10-15T01:49:04.707Z,14.62
2022-10-15T01:50:04.718Z,14.62
2022-10-15T01:51:04.687Z,14.62
2022-10-15T01:52:04.709Z,14.61
2022-10-15T01:53:04.659Z,14.62
2022-10-15T01:54:04.657Z,14.61
2022-10-15T01:55:04.642Z,14.62
2022-10-15T01:56:04.641Z,14.62
2022-10-15T01:57:04.621Z,14.62
2022-10-15T01:58:04.640Z,14.62
2022-10-15T01:59:04.592Z,14.64
2022-10-15T02:00:04.592Z,14.64
2022-10-15T02:01:04.640Z,14.62
2022-10-15T02:02:04.571Z,14.64
2022-10-15T02:03:04.551Z,14.64
2022-10-15T02:04:04.573Z,14.62
2022-10-15T02:05:04.523Z,14.64
2022-10-15T02:06:04.560Z,14.64
2022-10-15T02:07:04.510Z,14.62
2022-10-15T02:08:04.492Z,14.64
2022-10-15T02:09:04.544Z,14.64
2022-10-15T02:10:04.462Z,14.62
2022-10-15T02:11:04.461Z,14.62
2022-10-15T02:12:04.442Z,14.62
2022-10-15T02:13:04.435Z,14.62
2022-10-15T02:14:04.433Z,14.62
2022-10-15T02:15:04.452Z,14.62
2022-10-15T02:16:04.384Z,14.64
2022-10-15T02:17:04.373Z,14.62
2022-10-15T02:18:04.375Z,14.62
2022-10-15T02:19:04.355Z,14.64
2022-10-15T02:20:04.345Z,14.64
2022-10-15T02:21:04.357Z,14.62
2022-10-15T02:22:04.328Z,14.62
2022-10-15T02:23:04.305Z,14.62
2022-10-15T02:24:04.295Z,14.64
2022-10-15T02:25:04.277Z,14.62
2022-10-15T02:26:04.308Z,14.62
2022-10-15T02:27:04.256Z,14.64
2022-10-15T02:28:04.255Z,14.62
2022-10-15T02:29:04.344Z,14.64
2022-10-15T02:30:04.280Z,14.65
2022-10-15T02:31:04.219Z,14.65
2022-10-15T02:32:04.259Z,14.67
2022-10-15T02:33:04.193Z,14.68
2022-10-15T02:34:04.183Z,14.65
2022-10-15T02:35:04.169Z,14.67
2022-10-15T02:36:04.149Z,14.65
2022-10-15T02:37:04.164Z,14.65
2022-10-15T02:38:04.200Z,14.67
2022-10-15T02:39:04.116Z,14.67
2022-10-15T02:40:04.149Z,14.67
2022-10-15T02:41:04.097Z,14.65
2022-10-15T02:42:04.079Z,14.65
2022-10-15T02:43:04.099Z,14.67
2022-10-15T02:44:04.073Z,14.68
2022-10-15T02:45:04.055Z,14.67
2022-10-15T02:46:04.044Z,14.67
2022-10-15T02:47:04.035Z,14.65
2022-10-15T02:48:04.012Z,14.67
2022-10-15T02:49:04.025Z,14.67
2022-10-15T02:50:03.992Z,14.65
2022-10-15T02:51:03.981Z,14.65
2022-10-15T02:52:03.970Z,14.67
2022-10-15T02:53:03.962Z,14.68
2022-10-15T02:54:03.995Z,14.68
2022-10-15T02:55:03.937Z,14.68
2022-10-15T02:56:03.921Z,14.69
2022-10-15T02:57:03.951Z,14.69
2022-10-15T02:58:03.891Z,14.68
2022-10-15T02:59:03.893Z,14.68
2022-10-15T03:00:03.911Z,14.67
2022-10-15T03:01:03.934Z,14.67
2022-10-15T03:02:03.851Z,14.67
2022-10-15T03:03:03.849Z,14.64
2022-10-15T03:04:03.832Z,14.64
2022-10-15T03:05:03.903Z,14.65
2022-10-15T03:06:03.833Z,14.65
2022-10-15T03:07:03.795Z,14.65
2022-10-15T03:08:03.785Z,14.65
2022-10-15T03:09:03.806Z,14.67
2022-10-15T03:10:03.769Z,14.65
2022-10-15T03:11:03.827Z,14.65
2022-10-15T03:12:03.735Z,14.64
2022-10-15T03:13:03.727Z,14.64
2022-10-15T03:14:03.719Z,14.64
2022-10-15T03:15:03.718Z,14.61
2022-10-15T03:16:03.696Z,14.61
2022-10-15T03:17:03.843Z,14.62
2022-10-15T03:18:03.667Z,14.62
2022-10-15T03:19:03.690Z,14.61
2022-10-15T03:20:03.652Z,14.61
2022-10-15T03:21:03.656Z,14.62
2022-10-15T03:22:03.627Z,14.62
2022-10-15T03:23:03.656Z,14.61
2022-10-15T03:24:03.600Z,14.64
2022-10-15T03:25:03.592Z,14.61
2022-10-15T03:26:03.580Z,14.64
2022-10-15T03:27:03.567Z,14.62
2022-10-15T03:28:03.578Z,14.62
2022-10-15T03:29:03.551Z,14.62
2022-10-15T03:30:03.529Z,14.61
2022-10-15T03:31:03.529Z,14.61
2022-10-15T03:32:03.535Z,14.61
2022-10-15T03:33:03.506Z,14.61
2022-10-15T03:34:03.519Z,14.61
2022-10-15T03:35:03.503Z,14.60
2022-10-15T03:36:03.480Z,14.60
2022-10-15T03:37:03.452Z,14.61
2022-10-15T03:38:03.451Z,14.60
2022-10-15T03:39:03.451Z,14.60
2022-10-15T03:40:03.423Z,14.61
2022-10-15T03:41:03.421Z,14.61
2022-10-15T03:42:03.408Z,14.61
2022-10-15T03:43:03.401Z,14.60
2022-10-15T03:44:03.383Z,14.60
2022-10-15T03:45:03.399Z,14.54
2022-10-15T03:46:03.351Z,14.52
2022-10-15T03:47:03.341Z,14.49
2022-10-15T03:48:03.332Z,14.46
2022-10-15T03:49:03.330Z,14.44
2022-10-15T03:50:03.312Z,14.44
2022-10-15T03:51:03.318Z,14.43
2022-10-15T03:52:03.288Z,14.42
2022-10-15T03:53:03.273Z,14.42
2022-10-15T03:54:03.261Z,14.39
2022-10-15T03:55:03.244Z,14.38
2022-10-15T03:56:03.275Z,14.38
2022-10-15T03:57:03.263Z,14.38
2022-10-15T03:58:03.226Z,14.35
2022-10-15T03:59:03.200Z,14.35
2022-10-15T04:00:03.196Z,14.35
2022-10-15T04:01:03.219Z,14.35
2022-10-15T04:02:03.183Z,14.35
2022-10-15T04:03:03.186Z,14.35
2022-10-15T04:04:03.149Z,14.34
2022-10-15T04:05:03.153Z,14.34
2022-10-15T04:06:03.506Z,14.34
2022-10-15T04:07:03.118Z,14.35
2022-10-15T04:08:03.129Z,14.34
2022-10-15T04:09:03.111Z,14.32
2022-10-15T04:10:03.101Z,14.34
2022-10-15T04:11:03.107Z,14.34
2022-10-15T04:12:03.085Z,14.32
2022-10-15T04:13:03.046Z,14.32
2022-10-15T04:14:04.308Z,14.32
2022-10-15T04:15:03.017Z,14.32
2022-10-15T04:16:03.020Z,14.32
2022-10-15T04:17:02.997Z,14.34
2022-10-15T04:18:03.010Z,14.32
2022-10-15T04:19:05.099Z,14.32
2022-10-15T04:20:02.988Z,14.32
2022-10-15T04:21:02.951Z,14.34
2022-10-15T04:22:02.949Z,14.32
2022-10-15T04:23:02.929Z,14.34
2022-10-15T04:24:02.918Z,14.32
2022-10-15T04:25:02.941Z,14.32
2022-10-15T04:26:02.919Z,14.31
2022-10-15T04:27:02.990Z,14.31
2022-10-15T04:28:02.876Z,14.31
2022-10-15T04:29:02.999Z,14.32
2022-10-15T04:30:02.850Z,14.32
2022-10-15T04:31:02.896Z,14.32
2022-10-15T04:32:02.821Z,14.32
2022-10-15T04:33:02.827Z,14.32
2022-10-15T04:34:02.801Z,14.32
2022-10-15T04:35:02.791Z,14.32
2022-10-15T04:36:02.872Z,14.31
2022-10-15T04:37:02.771Z,14.32
2022-10-15T04:38:02.754Z,14.32
2022-10-15T04:39:02.756Z,14.34
2022-10-15T04:40:02.745Z,14.35
2022-10-15T04:41:02.727Z,14.34
2022-10-15T04:42:02.748Z,14.35
2022-10-15T04:43:02.707Z,14.35
2022-10-15T04:44:02.696Z,14.37
2022-10-15T04:45:02.692Z,14.37
2022-10-15T04:46:02.664Z,14.37
2022-10-15T04:47:02.657Z,14.35
2022-10-15T04:48:02.674Z,14.35
2022-10-15T04:49:02.634Z,14.35
2022-10-15T04:50:02.636Z,14.32
2022-10-15T04:51:02.684Z,14.32
2022-10-15T04:52:02.615Z,14.31
2022-10-15T04:53:02.644Z,14.31
2022-10-15T04:54:02.574Z,14.31
2022-10-15T04:55:02.588Z,14.31
2022-10-15T04:56:02.559Z,14.31
2022-10-15T04:57:02.567Z,14.29
2022-10-15T04:58:02.538Z,14.29
2022-10-15T04:59:02.806Z,14.29
2022-10-15T05:00:02.536Z,14.31
2022-10-15T05:01:02.496Z,14.31
2022-10-15T05:02:02.542Z,14.32
2022-10-15T05:03:02.507Z,14.34
2022-10-15T05:04:02.460Z,14.37
2022-10-15T05:05:02.518Z,14.37
2022-10-15T05:06:02.453Z,14.35
2022-10-15T05:07:02.429Z,14.37
2022-10-15T05:08:02.421Z,14.39
2022-10-15T05:09:02.423Z,14.38
2022-10-15T05:10:02.399Z,14.39
2022-10-15T05:11:02.410Z,14.38
2022-10-15T05:12:02.379Z,14.38
2022-10-15T05:13:02.371Z,14.38
2022-10-15T05:14:02.358Z,14.42
2022-10-15T05:15:02.591Z,14.39
2022-10-15T05:16:02.360Z,14.42
2022-10-15T05:17:02.323Z,14.39
2022-10-15T05:18:02.331Z,14.39
2022-10-15T05:19:02.320Z,14.38
2022-10-15T05:20:02.296Z,14.35
2022-10-15T05:21:02.289Z,14.35
2022-10-15T05:22:02.334Z,14.35
2022-10-15T05:23:02.269Z,14.34
2022-10-15T05:24:02.242Z,14.35
2022-10-15T05:25:02.452Z,14.35
2022-10-15T05:26:02.241Z,14.34
2022-10-15T05:27:03.174Z,14.37
2022-10-15T05:28:02.248Z,14.37
2022-10-15T05:29:02.245Z,14.39
2022-10-15T05:30:02.183Z,14.39
2022-10-15T05:31:02.174Z,14.39
2022-10-15T05:32:02.190Z,14.38
2022-10-15T05:33:02.135Z,14.39
2022-10-15T05:34:02.154Z,14.39
2022-10-15T05:35:02.113Z,14.39
2022-10-15T05:36:02.104Z,14.39
2022-10-15T05:37:02.096Z,14.38
2022-10-15T05:38:02.079Z,14.38
2022-10-15T05:39:02.111Z,14.35
2022-10-15T05:40:02.155Z,14.34
2022-10-15T05:41:02.056Z,14.32
2022-10-15T05:42:02.035Z,14.32
2022-10-15T05:43:02.071Z,14.31
2022-10-15T05:44:02.030Z,14.32
2022-10-15T05:45:02.049Z,14.32
2022-10-15T05:46:01.994Z,14.29
2022-10-15T05:47:02.147Z,14.31
2022-10-15T05:48:02.058Z,14.31
2022-10-15T05:49:01.990Z,14.31
2022-10-15T05:50:01.978Z,14.31
2022-10-15T05:51:01.962Z,14.34
2022-10-15T05:52:01.929Z,14.35
2022-10-15T05:53:01.935Z,14.34
2022-10-15T05:54:01.905Z,14.37
2022-10-15T05:55:01.908Z,14.38
2022-10-15T05:56:01.900Z,14.39
2022-10-15T05:57:01.859Z,14.39
2022-10-15T05:58:01.858Z,14.38
2022-10-15T05:59:01.851Z,14.39
2022-10-15T06:00:01.843Z,14.37
2022-10-15T06:01:01.842Z,14.39
2022-10-15T06:02:01.877Z,14.39
2022-10-15T06:03:01.792Z,14.42
2022-10-15T06:04:01.782Z,14.43
2022-10-15T06:05:01.771Z,14.43
2022-10-15T06:06:01.784Z,14.43
2022-10-15T06:07:01.780Z,14.42
2022-10-15T06:08:01.741Z,14.43
2022-10-15T06:09:01.727Z,14.43
2022-10-15T06:10:01.747Z,14.43
2022-10-15T06:11:05.235Z,14.44
2022-10-15T06:12:02.724Z,14.46
2022-10-15T06:13:01.672Z,14.47
2022-10-15T06:14:01.663Z,14.46
2022-10-15T06:15:01.652Z,14.47
2022-10-15T06:16:01.642Z,14.49
2022-10-15T06:17:01.634Z,14.47
2022-10-15T06:18:01.645Z,14.49
2022-10-15T06:19:01.612Z,14.50
2022-10-15T06:20:01.612Z,14.50
2022-10-15T06:21:01.622Z,14.52
2022-10-15T06:22:01.604Z,14.53
2022-10-15T06:23:01.605Z,14.53
2022-10-15T06:24:03.142Z,14.53
2022-10-15T06:25:01.546Z,14.52
2022-10-15T06:26:01.557Z,14.52
2022-10-15T06:27:01.684Z,14.53
2022-10-15T06:28:01.507Z,14.54
2022-10-15T06:29:05.525Z,14.54
2022-10-15T06:30:01.566Z,14.56
2022-10-15T06:31:01.477Z,14.56
2022-10-15T06:32:01.478Z,14.57
2022-10-15T06:33:01.536Z,14.57
2022-10-15T06:34:01.434Z,14.61
2022-10-15T06:35:01.460Z,14.62
2022-10-15T06:36:01.406Z,14.64
2022-10-15T06:37:01.415Z,14.62
2022-10-15T06:38:03.148Z,14.62
2022-10-15T06:39:01.387Z,14.64
2022-10-15T06:40:01.368Z,14.65
2022-10-15T06:41:01.387Z,14.68
2022-10-15T06:42:01.347Z,14.69
2022-10-15T06:43:01.358Z,14.72
2022-10-15T06:44:01.337Z,14.78
2022-10-15T06:45:01.330Z,14.78
2022-10-15T06:46:01.297Z,14.81
2022-10-15T06:47:01.348Z,14.81
2022-10-15T06:48:01.268Z,14.84
2022-10-15T06:49:01.293Z,14.87
2022-10-15T06:50:01.349Z,14.90
2022-10-15T06:51:01.267Z,14.91
2022-10-15T06:52:03.724Z,14.93
2022-10-15T06:53:01.232Z,14.91
2022-10-15T06:54:01.210Z,14.88
2022-10-15T06:55:01.201Z,14.87
2022-10-15T06:56:01.202Z,14.88
2022-10-15T06:57:01.180Z,14.88
2022-10-15T06:58:01.182Z,14.93
2022-10-15T06:59:01.152Z,14.93
2022-10-15T07:00:01.143Z,14.93
2022-10-15T07:01:01.125Z,14.94
2022-10-15T07:02:01.111Z,14.95
2022-10-15T07:03:01.102Z,14.94
2022-10-15T07:04:01.120Z,14.93
2022-10-15T07:05:01.082Z,14.93
2022-10-15T07:06:01.072Z,14.93
2022-10-15T07:07:01.058Z,14.90
2022-10-15T07:08:01.054Z,14.88
2022-10-15T07:09:01.059Z,14.90
2022-10-15T07:10:01.053Z,14.91
2022-10-15T07:11:01.005Z,14.93
2022-10-15T07:12:01.028Z,14.94
2022-10-15T07:13:00.989Z,14.95
2022-10-15T07:14:00.964Z,14.98
2022-10-15T07:15:01.176Z,14.99
2022-10-15T07:16:01.060Z,14.95
2022-10-15T07:17:00.977Z,14.88
2022-10-15T07:18:00.977Z,14.88
2022-10-15T07:19:00.946Z,14.87
2022-10-15T07:20:00.904Z,14.91
2022-10-15T07:21:01.250Z,14.94
2022-10-15T07:22:00.885Z,14.94
2022-10-15T07:23:00.874Z,14.95
2022-10-15T07:24:00.867Z,14.94
2022-10-15T07:25:00.866Z,14.98
2022-10-15T07:26:00.870Z,14.95
2022-10-15T07:27:05.141Z,14.94
2022-10-15T07:28:01.827Z,14.95
2022-10-15T07:29:00.877Z,14.99
2022-10-15T07:30:00.814Z,14.99
2022-10-15T07:31:00.799Z,14.95
2022-10-15T07:32:00.797Z,14.91
2022-10-15T07:33:00.778Z,14.93
2022-10-15T07:34:00.738Z,14.94
2022-10-15T07:35:00.736Z,14.93
2022-10-15T07:36:00.709Z,14.93
2022-10-15T07:37:00.730Z,14.90
2022-10-15T07:38:00.740Z,14.91
2022-10-15T07:39:00.685Z,14.91
2022-10-15T07:40:00.679Z,14.91
2022-10-15T07:41:00.669Z,14.91
2022-10-15T07:42:00.686Z,14.91
2022-10-15T07:43:00.630Z,14.90
2022-10-15T07:44:00.663Z,14.91
2022-10-15T07:45:00.613Z,14.93
2022-10-15T07:46:00.601Z,14.95
2022-10-15T07:47:00.609Z,14.95
2022-10-15T07:48:00.566Z,14.99
2022-10-15T07:49:00.597Z,15.01
2022-10-15T07:50:00.573Z,15.02
2022-10-15T07:51:00.534Z,15.02
2022-10-15T07:52:00.545Z,15.05
2022-10-15T07:53:00.535Z,15.06
2022-10-15T07:54:00.513Z,15.08
2022-10-15T07:55:01.426Z,15.11
2022-10-15T07:56:00.498Z,15.12
2022-10-15T07:57:00.462Z,15.15
2022-10-15T07:58:00.458Z,15.20
2022-10-15T07:59:00.465Z,15.21
2022-10-15T08:00:00.430Z,15.19
2022-10-15T08:01:00.472Z,15.21
2022-10-15T08:02:01.184Z,15.26
2022-10-15T08:03:00.383Z,15.31
2022-10-15T08:04:00.420Z,15.35
2022-10-15T08:05:00.357Z,15.35
2022-10-15T08:06:00.415Z,15.38
2022-10-15T08:07:00.366Z,15.38
2022-10-15T08:08:00.354Z,15.39
2022-10-15T08:09:00.310Z,15.38
2022-10-15T08:10:00.317Z,15.36
2022-10-15T08:11:00.286Z,15.35
2022-10-15T08:12:00.295Z,15.35
2022-10-15T08:13:00.318Z,15.30
2022-10-15T08:14:00.278Z,15.35
2022-10-15T08:15:00.239Z,15.39
2022-10-15T08:16:00.457Z,15.41
2022-10-15T08:17:00.219Z,15.43
2022-10-15T08:18:00.199Z,15.45
2022-10-15T08:19:00.244Z,15.46
2022-10-15T08:20:00.211Z,15.43
2022-10-15T08:21:00.207Z,15.42
2022-10-15T08:22:00.171Z,15.46
2022-10-15T08:23:00.200Z,15.56
2022-10-15T08:24:00.140Z,15.57
2022-10-15T08:25:00.126Z,15.59
2022-10-15T08:26:00.160Z,15.64
2022-10-15T08:27:00.093Z,15.72
2022-10-15T08:28:00.191Z,15.75
2022-10-15T08:29:00.171Z,15.70
2022-10-15T08:30:00.085Z,15.67
2022-10-15T08:31:02.793Z,15.67
2022-10-15T08:32:01.100Z,15.72
2022-10-15T08:33:00.074Z,15.75
2022-10-15T08:34:00.076Z,15.75
2022-10-15T08:35:00.012Z,15.79
2022-10-15T08:36:00.001Z,15.82
2022-10-15T08:37:00.031Z,15.85
2022-10-15T08:37:59.973Z,15.92
2022-10-15T08:39:00.005Z,15.97
2022-10-15T08:39:59.954Z,16.06
2022-10-15T08:40:59.950Z,16.12
2022-10-15T08:41:59.961Z,16.18
2022-10-15T08:42:59.963Z,16.15
2022-10-15T08:43:59.918Z,16.15
2022-10-15T08:44:59.893Z,16.20
2022-10-15T08:45:59.885Z,16.22
2022-10-15T08:46:59.869Z,16.14
2022-10-15T08:47:59.854Z,16.16
2022-10-15T08:48:59.875Z,16.20
2022-10-15T08:49:59.874Z,16.14
2022-10-15T08:50:59.816Z,16.11
2022-10-15T08:51:59.814Z,16.15
2022-10-15T08:52:59.820Z,16.18
2022-10-15T08:53:59.820Z,16.23
2022-10-15T08:54:59.787Z,16.22
2022-10-15T08:55:59.770Z,16.25
2022-10-15T08:56:59.758Z,16.27
2022-10-15T08:57:59.758Z,16.20
2022-10-15T08:58:59.728Z,16.15
2022-10-15T08:59:59.760Z,16.26
2022-10-15T09:00:59.717Z,16.31
2022-10-15T09:01:59.736Z,16.40
2022-10-15T09:02:59.744Z,16.38
2022-10-15T09:03:59.669Z,16.41
2022-10-15T09:04:59.662Z,16.44
2022-10-15T09:05:59.670Z,16.38
2022-10-15T09:06:59.638Z,16.49
2022-10-15T09:07:59.631Z,16.59
2022-10-15T09:08:59.624Z,16.68
2022-10-15T09:09:59.599Z,16.75
2022-10-15T09:10:59.598Z,16.74
2022-10-15T09:11:59.613Z,16.73
2022-10-15T09:12:59.572Z,16.70
2022-10-15T09:13:59.592Z,16.74
2022-10-15T09:14:59.565Z,16.63
2022-10-15T09:15:59.531Z,16.62
2022-10-15T09:16:59.524Z,16.62
2022-10-15T09:17:59.546Z,16.67
2022-10-15T09:18:59.505Z,16.62
2022-10-15T09:19:59.504Z,16.59
2022-10-15T09:20:59.492Z,16.52
2022-10-15T09:21:59.479Z,16.50
2022-10-15T09:22:59.461Z,16.49
2022-10-15T09:23:59.472Z,16.49
2022-10-15T09:24:59.431Z,16.40
2022-10-15T09:25:59.420Z,16.41
2022-10-15T09:26:59.413Z,16.44
2022-10-15T09:27:59.394Z,16.50
2022-10-15T09:28:59.412Z,16.50
2022-10-15T09:29:59.385Z,16.41
2022-10-15T09:30:59.366Z,16.44
2022-10-15T09:31:59.346Z,16.42
2022-10-15T09:32:59.336Z,16.42
2022-10-15T09:33:59.349Z,16.42
2022-10-15T09:34:59.350Z,16.35
2022-10-15T09:35:59.305Z,16.25
2022-10-15T09:36:59.295Z,16.20
2022-10-15T09:38:03.456Z,16.25
2022-10-15T09:39:00.268Z,16.22
2022-10-15T09:39:59.267Z,16.25
2022-10-15T09:40:59.414Z,16.26
2022-10-15T09:41:59.226Z,16.26
2022-10-15T09:42:59.219Z,16.33
2022-10-15T09:43:59.221Z,16.38
2022-10-15T09:44:59.201Z,16.44
2022-10-15T09:45:59.189Z,16.45
2022-10-15T09:46:59.197Z,16.37
2022-10-15T09:47:59.157Z,16.38
2022-10-15T09:48:59.155Z,16.42
2022-10-15T09:49:59.129Z,16.45
2022-10-15T09:50:59.140Z,16.45
2022-10-15T09:51:59.120Z,16.52
2022-10-15T09:52:59.142Z,16.49
2022-10-15T09:53:59.096Z,16.45
2022-10-15T09:54:59.094Z,16.52
2022-10-15T09:55:59.084Z,16.55
2022-10-15T09:56:59.062Z,16.56
2022-10-15T09:57:59.129Z,16.67
2022-10-15T09:58:59.043Z,16.75
2022-10-15T09:59:59.037Z,16.83
2022-10-15T10:00:59.010Z,16.86
2022-10-15T10:01:59.067Z,16.89
2022-10-15T10:02:58.991Z,16.96
2022-10-15T10:03:58.993Z,17.00
2022-10-15T10:04:58.972Z,17.06
2022-10-15T10:05:58.953Z,17.08
2022-10-15T10:06:58.946Z,17.13
2022-10-15T10:07:58.932Z,17.04
2022-10-15T10:08:58.943Z,16.98
2022-10-15T10:09:58.913Z,16.99
2022-10-15T10:10:58.915Z,17.08
2022-10-15T10:11:58.894Z,17.14
2022-10-15T10:12:58.884Z,17.10
2022-10-15T10:13:58.864Z,17.15
2022-10-15T10:14:58.922Z,17.17
2022-10-15T10:15:59.620Z,17.20
2022-10-15T10:16:58.826Z,17.28
2022-10-15T10:17:58.826Z,17.32
2022-10-15T10:18:58.796Z,17.23
2022-10-15T10:19:58.799Z,17.30
2022-10-15T10:20:58.795Z,17.28
2022-10-15T10:21:58.776Z,17.30
2022-10-15T10:22:58.762Z,17.32
2022-10-15T10:23:58.752Z,17.33
2022-10-15T10:24:58.739Z,17.29
2022-10-15T10:25:58.728Z,17.22
2022-10-15T10:26:58.837Z,17.26
2022-10-15T10:27:58.711Z,17.32
2022-10-15T10:29:05.058Z,17.41
2022-10-15T10:29:59.683Z,17.46
2022-10-15T10:30:58.660Z,17.41
2022-10-15T10:31:58.658Z,17.47
2022-10-15T10:32:58.668Z,17.44
2022-10-15T10:33:58.626Z,17.38
2022-10-15T10:34:58.619Z,17.43
2022-10-15T10:35:58.663Z,17.47
2022-10-15T10:36:58.611Z,17.54
2022-10-15T10:37:58.580Z,17.62
2022-10-15T10:38:58.612Z,17.64
2022-10-15T10:39:58.565Z,17.71
2022-10-15T10:40:58.542Z,17.79
2022-10-15T10:41:58.534Z,17.89
2022-10-15T10:42:59.613Z,17.92
2022-10-15T10:43:58.522Z,17.92
2022-10-15T10:44:58.525Z,18.00
2022-10-15T10:45:58.483Z,18.06
2022-10-15T10:46:58.483Z,17.99
2022-10-15T10:47:58.462Z,17.92
2022-10-15T10:48:58.453Z,17.91
2022-10-15T10:49:58.444Z,17.91
2022-10-15T10:50:58.463Z,17.91
2022-10-15T10:51:58.413Z,17.88
2022-10-15T10:52:58.405Z,17.95
2022-10-15T10:53:58.409Z,18.04
2022-10-15T10:54:58.385Z,18.09
2022-10-15T10:55:58.378Z,18.02
2022-10-15T10:56:58.415Z,17.94
2022-10-15T10:57:58.363Z,17.99
2022-10-15T10:58:58.337Z,17.88
2022-10-15T10:59:58.314Z,17.82
2022-10-15T11:00:58.359Z,17.85
2022-10-15T11:01:58.426Z,17.89
2022-10-15T11:02:58.313Z,17.84
2022-10-15T11:03:58.289Z,17.79
2022-10-15T11:04:58.273Z,17.78
2022-10-15T11:05:58.253Z,17.70
2022-10-15T11:06:58.268Z,17.66
2022-10-15T11:07:58.394Z,17.69
2022-10-15T11:08:58.232Z,17.63
2022-10-15T11:09:58.214Z,17.66
2022-10-15T11:10:58.208Z,17.70
2022-10-15T11:11:58.218Z,17.74
2022-10-15T11:12:58.209Z,17.84
2022-10-15T11:13:58.180Z,17.87
2022-10-15T11:14:58.152Z,17.94
2022-10-15T11:15:58.143Z,18.02
2022-10-15T11:16:58.119Z,18.06
2022-10-15T11:17:58.118Z,18.10
2022-10-15T11:18:58.100Z,17.97
2022-10-15T11:20:27.034Z,18.06
2022-10-15T11:21:01.788Z,18.07
2022-10-15T11:21:59.060Z,18.21
2022-10-15T11:22:58.063Z,18.25
2022-10-15T11:23:58.033Z,18.27
2022-10-15T11:25:06.652Z,18.27
2022-10-15T11:25:59.011Z,18.34
2022-10-15T11:27:09.866Z,18.39
2022-10-15T11:27:59.031Z,18.37
2022-10-15T11:28:58.043Z,18.43
2022-10-15T11:29:57.972Z,18.43
2022-10-15T11:30:58.113Z,18.37
2022-10-15T11:32:02.768Z,18.43
2022-10-15T11:33:07.753Z,18.47
2022-10-15T11:33:58.924Z,18.36
2022-10-15T11:34:57.918Z,18.33
2022-10-15T11:35:57.901Z,18.29
2022-10-15T11:36:57.914Z,18.27
2022-10-15T11:37:57.895Z,18.31
2022-10-15T11:38:57.906Z,18.27
2022-10-15T11:39:57.857Z,18.22
2022-10-15T11:40:57.930Z,18.24
2022-10-15T11:41:57.862Z,18.19
2022-10-15T11:42:57.834Z,18.13
2022-10-15T11:43:57.805Z,18.24
2022-10-15T11:44:57.797Z,18.21
2022-10-15T11:45:57.792Z,18.17
2022-10-15T11:46:57.787Z,18.18
2022-10-15T11:47:57.858Z,18.27
2022-10-15T11:48:57.741Z,18.22
2022-10-15T11:49:57.748Z,18.28
2022-10-15T11:50:57.735Z,18.36
2022-10-15T11:51:57.707Z,18.36
2022-10-15T11:52:57.691Z,18.28
2022-10-15T11:53:57.720Z,18.18
2022-10-15T11:54:57.697Z,18.29
2022-10-15T11:55:57.671Z,18.31
2022-10-15T11:56:57.658Z,18.28
2022-10-15T11:57:57.646Z,18.21
2022-10-15T11:59:57.651Z,18.31
2022-10-15T12:00:57.621Z,18.39
2022-10-15T12:01:57.590Z,18.29
2022-10-15T12:02:57.617Z,18.24
2022-10-15T12:03:57.604Z,18.31
2022-10-15T12:04:57.563Z,18.31
2022-10-15T12:05:57.574Z,18.25
2022-10-15T12:06:57.556Z,18.25
2022-10-15T12:07:57.548Z,18.12
2022-10-15T12:08:57.514Z,18.12
2022-10-15T12:09:57.498Z,18.13
2022-10-15T12:10:57.508Z,18.21
2022-10-15T12:11:59.551Z,18.29
2022-10-15T12:12:57.489Z,18.25
2022-10-15T12:13:57.469Z,18.21
2022-10-15T12:14:57.443Z,18.25
2022-10-15T12:15:57.434Z,18.33
2022-10-15T12:16:57.435Z,18.36
2022-10-15T12:17:57.425Z,18.37
2022-10-15T12:18:57.406Z,18.44
2022-10-15T12:19:57.378Z,18.55
2022-10-15T12:20:57.376Z,18.47
2022-10-15T12:21:57.356Z,18.50
2022-10-15T12:22:57.345Z,18.52
2022-10-15T12:23:57.369Z,18.47
2022-10-15T12:24:57.328Z,18.52
2022-10-15T12:25:57.327Z,18.52
2022-10-15T12:26:57.306Z,18.54
2022-10-15T12:27:57.289Z,18.64
2022-10-15T12:28:59.499Z,18.74
2022-10-15T12:29:58.301Z,18.72
2022-10-15T12:30:57.267Z,18.74
2022-10-15T12:31:57.249Z,18.74
2022-10-15T12:32:57.251Z,18.79
2022-10-15T12:33:57.229Z,18.76
2022-10-15T12:34:57.241Z,18.70
2022-10-15T12:35:57.234Z,18.64
2022-10-15T12:36:57.190Z,18.54
2022-10-15T12:37:57.180Z,18.58
2022-10-15T12:38:57.171Z,18.55
2022-10-15T12:39:57.177Z,18.47
2022-10-15T12:40:57.162Z,18.43
2022-10-15T12:41:57.161Z,18.44
2022-10-15T12:42:57.121Z,18.49
2022-10-15T12:43:57.140Z,18.47
2022-10-15T12:44:57.132Z,18.42
2022-10-15T12:45:57.082Z,18.34
2022-10-15T12:46:57.117Z,18.37
2022-10-15T12:47:57.061Z,18.40
2022-10-15T12:48:57.053Z,18.44
2022-10-15T12:49:57.058Z,18.47
2022-10-15T12:50:57.032Z,18.54
2022-10-15T12:51:57.031Z,18.42
2022-10-15T12:52:57.045Z,18.39